sensor_id;sensor_type;location;lat;lon;timestamp;P1;durP1;ratioP1;P2;durP2;ratioP2
45764;SDS011;31474;45.332;10.230;2023-01-19T00:00:09;31.13;;;18.65;;
45764;SDS011;31474;45.332;10.230;2023-01-19T00:02:36;42.88;;;19.35;;
45764;SDS011;31474;45.332;10.230;2023-01-19T00:05:02;34.92;;;17.40;;
45764;SDS011;31474;45.332;10.230;2023-01-19T00:07:29;40.67;;;19.05;;
45764;SDS011;31474;45.332;10.230;2023-01-19T00:09:55;47.20;;;23.17;;
45764;SDS011;31474;45.332;10.230;2023-01-19T00:12:21;34.88;;;18.50;;
45764;SDS011;31474;45.332;10.230;2023-01-19T00:14:47;37.50;;;19.23;;
45764;SDS011;31474;45.332;10.230;2023-01-19T00:17:12;45.05;;;20.10;;
45764;SDS011;31474;45.332;10.230;2023-01-19T00:19:38;35.95;;;19.25;;
45764;SDS011;31474;45.332;10.230;2023-01-19T00:22:04;46.50;;;21.40;;
45764;SDS011;31474;45.332;10.230;2023-01-19T00:24:32;47.58;;;19.58;;
45764;SDS011;31474;45.332;10.230;2023-01-19T00:26:58;47.28;;;20.67;;
45764;SDS011;31474;45.332;10.230;2023-01-19T00:29:25;45.13;;;20.63;;
45764;SDS011;31474;45.332;10.230;2023-01-19T00:31:54;30.70;;;17.17;;
45764;SDS011;31474;45.332;10.230;2023-01-19T00:34:20;46.08;;;19.88;;
45764;SDS011;31474;45.332;10.230;2023-01-19T00:36:45;32.30;;;16.88;;
45764;SDS011;31474;45.332;10.230;2023-01-19T00:39:11;40.50;;;18.42;;
45764;SDS011;31474;45.332;10.230;2023-01-19T00:41:37;43.17;;;18.88;;
45764;SDS011;31474;45.332;10.230;2023-01-19T00:44:21;29.52;;;16.30;;
45764;SDS011;31474;45.332;10.230;2023-01-19T00:46:46;42.25;;;18.50;;
45764;SDS011;31474;45.332;10.230;2023-01-19T00:49:12;38.47;;;17.85;;
45764;SDS011;31474;45.332;10.230;2023-01-19T00:51:38;40.35;;;19.35;;
45764;SDS011;31474;45.332;10.230;2023-01-19T00:54:03;35.92;;;18.77;;
45764;SDS011;31474;45.332;10.230;2023-01-19T00:56:32;28.45;;;17.02;;
45764;SDS011;31474;45.332;10.230;2023-01-19T00:58:58;37.60;;;16.92;;
45764;SDS011;31474;45.332;10.230;2023-01-19T01:01:24;33.60;;;18.08;;
45764;SDS011;31474;45.332;10.230;2023-01-19T01:03:50;45.28;;;19.33;;
45764;SDS011;31474;45.332;10.230;2023-01-19T01:06:17;31.90;;;17.90;;
45764;SDS011;31474;45.332;10.230;2023-01-19T01:08:44;36.05;;;17.30;;
45764;SDS011;31474;45.332;10.230;2023-01-19T01:11:10;33.60;;;17.58;;
45764;SDS011;31474;45.332;10.230;2023-01-19T01:13:35;37.03;;;18.02;;
45764;SDS011;31474;45.332;10.230;2023-01-19T01:16:01;41.42;;;19.45;;
45764;SDS011;31474;45.332;10.230;2023-01-19T01:18:27;42.72;;;18.80;;
45764;SDS011;31474;45.332;10.230;2023-01-19T01:20:59;27.80;;;15.98;;
45764;SDS011;31474;45.332;10.230;2023-01-19T01:23:25;28.90;;;15.73;;
45764;SDS011;31474;45.332;10.230;2023-01-19T01:25:51;40.63;;;18.08;;
45764;SDS011;31474;45.332;10.230;2023-01-19T01:28:17;43.28;;;19.90;;
45764;SDS011;31474;45.332;10.230;2023-01-19T01:30:42;43.13;;;19.02;;
45764;SDS011;31474;45.332;10.230;2023-01-19T01:33:08;46.25;;;20.50;;
45764;SDS011;31474;45.332;10.230;2023-01-19T01:35:35;37.90;;;17.77;;
45764;SDS011;31474;45.332;10.230;2023-01-19T01:38:01;49.78;;;20.30;;
45764;SDS011;31474;45.332;10.230;2023-01-19T01:40:28;46.95;;;20.73;;
45764;SDS011;31474;45.332;10.230;2023-01-19T01:42:53;45.42;;;19.88;;
45764;SDS011;31474;45.332;10.230;2023-01-19T01:48:22;41.65;;;19.70;;
45764;SDS011;31474;45.332;10.230;2023-01-19T01:50:59;45.53;;;19.67;;
45764;SDS011;31474;45.332;10.230;2023-01-19T01:53:46;40.22;;;20.27;;
45764;SDS011;31474;45.332;10.230;2023-01-19T01:56:14;34.50;;;19.88;;
45764;SDS011;31474;45.332;10.230;2023-01-19T01:58:45;43.10;;;19.73;;
45764;SDS011;31474;45.332;10.230;2023-01-19T02:01:11;37.13;;;17.58;;
45764;SDS011;31474;45.332;10.230;2023-01-19T02:03:55;34.72;;;17.13;;
45764;SDS011;31474;45.332;10.230;2023-01-19T02:06:22;43.22;;;20.40;;
45764;SDS011;31474;45.332;10.230;2023-01-19T02:08:53;40.20;;;19.98;;
45764;SDS011;31474;45.332;10.230;2023-01-19T02:11:41;32.10;;;16.65;;
45764;SDS011;31474;45.332;10.230;2023-01-19T02:14:26;39.88;;;18.85;;
45764;SDS011;31474;45.332;10.230;2023-01-19T02:16:51;37.08;;;17.80;;
45764;SDS011;31474;45.332;10.230;2023-01-19T02:19:22;27.52;;;13.98;;
45764;SDS011;31474;45.332;10.230;2023-01-19T02:21:57;38.30;;;17.85;;
45764;SDS011;31474;45.332;10.230;2023-01-19T02:24:42;36.75;;;17.02;;
45764;SDS011;31474;45.332;10.230;2023-01-19T02:27:08;29.33;;;16.67;;
45764;SDS011;31474;45.332;10.230;2023-01-19T02:29:35;34.83;;;16.08;;
45764;SDS011;31474;45.332;10.230;2023-01-19T02:32:00;40.97;;;17.75;;
45764;SDS011;31474;45.332;10.230;2023-01-19T02:34:27;31.15;;;15.15;;
45764;SDS011;31474;45.332;10.230;2023-01-19T02:36:55;24.30;;;13.82;;
45764;SDS011;31474;45.332;10.230;2023-01-19T02:39:32;33.20;;;17.23;;
45764;SDS011;31474;45.332;10.230;2023-01-19T02:42:03;26.85;;;13.18;;
45764;SDS011;31474;45.332;10.230;2023-01-19T02:44:32;30.95;;;15.20;;
45764;SDS011;31474;45.332;10.230;2023-01-19T02:46:59;22.30;;;13.10;;
45764;SDS011;31474;45.332;10.230;2023-01-19T02:49:27;35.53;;;16.70;;
45764;SDS011;31474;45.332;10.230;2023-01-19T02:51:56;33.35;;;16.60;;
45764;SDS011;31474;45.332;10.230;2023-01-19T02:59:45;28.02;;;14.23;;
45764;SDS011;31474;45.332;10.230;2023-01-19T03:02:44;30.08;;;14.77;;
45764;SDS011;31474;45.332;10.230;2023-01-19T03:15:45;18.98;;;9.52;;
45764;SDS011;31474;45.332;10.230;2023-01-19T03:18:15;17.85;;;10.00;;
45764;SDS011;31474;45.332;10.230;2023-01-19T03:20:44;17.00;;;8.75;;
45764;SDS011;31474;45.332;10.230;2023-01-19T03:23:12;13.70;;;7.75;;
45764;SDS011;31474;45.332;10.230;2023-01-19T03:25:43;10.05;;;6.35;;
45764;SDS011;31474;45.332;10.230;2023-01-19T03:28:12;15.05;;;7.28;;
45764;SDS011;31474;45.332;10.230;2023-01-19T03:30:41;15.30;;;7.30;;
45764;SDS011;31474;45.332;10.230;2023-01-19T03:33:13;11.82;;;6.85;;
45764;SDS011;31474;45.332;10.230;2023-01-19T03:35:52;11.45;;;6.65;;
45764;SDS011;31474;45.332;10.230;2023-01-19T03:38:24;14.35;;;7.03;;
45764;SDS011;31474;45.332;10.230;2023-01-19T03:40:56;11.50;;;5.75;;
45764;SDS011;31474;45.332;10.230;2023-01-19T03:43:25;11.50;;;5.68;;
45764;SDS011;31474;45.332;10.230;2023-01-19T03:45:54;9.88;;;6.05;;
45764;SDS011;31474;45.332;10.230;2023-01-19T03:48:20;9.25;;;6.15;;
45764;SDS011;31474;45.332;10.230;2023-01-19T03:50:47;11.07;;;5.20;;
45764;SDS011;31474;45.332;10.230;2023-01-19T03:53:14;9.90;;;4.90;;
45764;SDS011;31474;45.332;10.230;2023-01-19T03:55:42;11.38;;;5.95;;
45764;SDS011;31474;45.332;10.230;2023-01-19T03:58:10;7.90;;;5.15;;
45764;SDS011;31474;45.332;10.230;2023-01-19T04:00:36;7.78;;;4.60;;
45764;SDS011;31474;45.332;10.230;2023-01-19T04:03:02;9.20;;;6.03;;
45764;SDS011;31474;45.332;10.230;2023-01-19T04:05:29;9.25;;;5.75;;
45764;SDS011;31474;45.332;10.230;2023-01-19T04:07:55;12.88;;;5.78;;
45764;SDS011;31474;45.332;10.230;2023-01-19T04:10:21;7.57;;;4.60;;
45764;SDS011;31474;45.332;10.230;2023-01-19T04:12:46;11.52;;;5.05;;
45764;SDS011;31474;45.332;10.230;2023-01-19T04:15:13;9.60;;;5.13;;
45764;SDS011;31474;45.332;10.230;2023-01-19T04:17:39;9.85;;;4.68;;
45764;SDS011;31474;45.332;10.230;2023-01-19T04:20:05;11.73;;;5.38;;
45764;SDS011;31474;45.332;10.230;2023-01-19T04:22:32;11.15;;;5.05;;
45764;SDS011;31474;45.332;10.230;2023-01-19T04:24:58;9.43;;;5.50;;
45764;SDS011;31474;45.332;10.230;2023-01-19T04:27:23;11.80;;;6.07;;
45764;SDS011;31474;45.332;10.230;2023-01-19T04:29:50;17.45;;;7.65;;
45764;SDS011;31474;45.332;10.230;2023-01-19T04:32:16;10.52;;;5.70;;
45764;SDS011;31474;45.332;10.230;2023-01-19T04:34:42;9.50;;;5.25;;
45764;SDS011;31474;45.332;10.230;2023-01-19T04:37:08;12.45;;;6.25;;
45764;SDS011;31474;45.332;10.230;2023-01-19T04:39:34;10.55;;;5.60;;
45764;SDS011;31474;45.332;10.230;2023-01-19T04:42:00;11.65;;;6.18;;
45764;SDS011;31474;45.332;10.230;2023-01-19T04:44:26;11.60;;;6.22;;
45764;SDS011;31474;45.332;10.230;2023-01-19T04:46:52;13.88;;;7.13;;
45764;SDS011;31474;45.332;10.230;2023-01-19T04:49:18;11.35;;;6.35;;
45764;SDS011;31474;45.332;10.230;2023-01-19T04:51:44;13.95;;;6.47;;
45764;SDS011;31474;45.332;10.230;2023-01-19T04:54:10;12.45;;;6.47;;
45764;SDS011;31474;45.332;10.230;2023-01-19T04:56:35;13.50;;;6.97;;
45764;SDS011;31474;45.332;10.230;2023-01-19T04:59:01;11.82;;;6.10;;
45764;SDS011;31474;45.332;10.230;2023-01-19T05:01:27;15.55;;;8.00;;
45764;SDS011;31474;45.332;10.230;2023-01-19T05:03:52;12.15;;;6.88;;
45764;SDS011;31474;45.332;10.230;2023-01-19T05:06:18;11.77;;;6.72;;
45764;SDS011;31474;45.332;10.230;2023-01-19T05:08:44;15.27;;;7.68;;
45764;SDS011;31474;45.332;10.230;2023-01-19T05:11:09;13.75;;;8.35;;
45764;SDS011;31474;45.332;10.230;2023-01-19T05:13:35;13.27;;;7.40;;
45764;SDS011;31474;45.332;10.230;2023-01-19T05:16:01;16.42;;;8.30;;
45764;SDS011;31474;45.332;10.230;2023-01-19T05:18:26;12.50;;;6.63;;
45764;SDS011;31474;45.332;10.230;2023-01-19T05:20:52;14.75;;;8.15;;
45764;SDS011;31474;45.332;10.230;2023-01-19T05:23:18;13.05;;;5.85;;
45764;SDS011;31474;45.332;10.230;2023-01-19T05:25:43;9.75;;;4.80;;
45764;SDS011;31474;45.332;10.230;2023-01-19T05:28:09;9.13;;;4.72;;
45764;SDS011;31474;45.332;10.230;2023-01-19T05:30:35;9.20;;;4.82;;
45764;SDS011;31474;45.332;10.230;2023-01-19T05:33:01;7.35;;;3.80;;
45764;SDS011;31474;45.332;10.230;2023-01-19T05:35:27;10.18;;;4.85;;
45764;SDS011;31474;45.332;10.230;2023-01-19T05:37:53;12.10;;;4.75;;
45764;SDS011;31474;45.332;10.230;2023-01-19T05:40:18;10.38;;;5.10;;
45764;SDS011;31474;45.332;10.230;2023-01-19T05:42:44;6.53;;;3.60;;
45764;SDS011;31474;45.332;10.230;2023-01-19T05:45:10;10.90;;;4.57;;
45764;SDS011;31474;45.332;10.230;2023-01-19T05:47:36;7.93;;;4.13;;
45764;SDS011;31474;45.332;10.230;2023-01-19T05:50:02;5.53;;;3.63;;
45764;SDS011;31474;45.332;10.230;2023-01-19T05:52:28;6.72;;;3.10;;
45764;SDS011;31474;45.332;10.230;2023-01-19T05:54:53;6.05;;;2.90;;
45764;SDS011;31474;45.332;10.230;2023-01-19T05:57:19;3.50;;;2.17;;
45764;SDS011;31474;45.332;10.230;2023-01-19T05:59:46;3.33;;;2.28;;
45764;SDS011;31474;45.332;10.230;2023-01-19T06:02:11;4.60;;;2.03;;
45764;SDS011;31474;45.332;10.230;2023-01-19T06:04:37;3.15;;;2.03;;
45764;SDS011;31474;45.332;10.230;2023-01-19T06:07:03;2.75;;;2.08;;
45764;SDS011;31474;45.332;10.230;2023-01-19T06:09:30;4.07;;;1.88;;
45764;SDS011;31474;45.332;10.230;2023-01-19T06:11:56;3.58;;;2.00;;
45764;SDS011;31474;45.332;10.230;2023-01-19T06:14:23;4.63;;;2.20;;
45764;SDS011;31474;45.332;10.230;2023-01-19T06:16:49;3.30;;;2.20;;
45764;SDS011;31474;45.332;10.230;2023-01-19T06:19:15;7.70;;;3.35;;
45764;SDS011;31474;45.332;10.230;2023-01-19T06:21:40;4.97;;;3.60;;
45764;SDS011;31474;45.332;10.230;2023-01-19T06:24:08;7.57;;;4.93;;
45764;SDS011;31474;45.332;10.230;2023-01-19T06:26:34;11.63;;;7.35;;
45764;SDS011;31474;45.332;10.230;2023-01-19T06:28:59;10.65;;;6.40;;
45764;SDS011;31474;45.332;10.230;2023-01-19T06:31:25;18.13;;;8.25;;
45764;SDS011;31474;45.332;10.230;2023-01-19T06:33:50;12.60;;;5.28;;
45764;SDS011;31474;45.332;10.230;2023-01-19T06:36:16;7.22;;;4.15;;
45764;SDS011;31474;45.332;10.230;2023-01-19T06:38:41;4.93;;;3.67;;
45764;SDS011;31474;45.332;10.230;2023-01-19T06:41:07;6.10;;;3.20;;
45764;SDS011;31474;45.332;10.230;2023-01-19T06:43:33;8.55;;;4.13;;
45764;SDS011;31474;45.332;10.230;2023-01-19T06:45:59;7.03;;;4.10;;
45764;SDS011;31474;45.332;10.230;2023-01-19T06:48:25;4.80;;;2.83;;
45764;SDS011;31474;45.332;10.230;2023-01-19T06:50:50;10.32;;;5.07;;
45764;SDS011;31474;45.332;10.230;2023-01-19T06:53:16;8.13;;;5.03;;
45764;SDS011;31474;45.332;10.230;2023-01-19T06:55:44;24.58;;;17.35;;
45764;SDS011;31474;45.332;10.230;2023-01-19T06:58:10;9.88;;;5.43;;
45764;SDS011;31474;45.332;10.230;2023-01-19T07:00:37;10.35;;;8.25;;
45764;SDS011;31474;45.332;10.230;2023-01-19T07:03:04;14.63;;;9.68;;
45764;SDS011;31474;45.332;10.230;2023-01-19T07:05:32;13.57;;;9.88;;
45764;SDS011;31474;45.332;10.230;2023-01-19T07:07:59;10.75;;;6.95;;
45764;SDS011;31474;45.332;10.230;2023-01-19T07:10:25;23.42;;;16.90;;
45764;SDS011;31474;45.332;10.230;2023-01-19T07:12:51;14.15;;;11.13;;
45764;SDS011;31474;45.332;10.230;2023-01-19T07:15:17;10.52;;;8.10;;
45764;SDS011;31474;45.332;10.230;2023-01-19T07:17:45;12.52;;;6.28;;
45764;SDS011;31474;45.332;10.230;2023-01-19T07:20:11;10.98;;;7.15;;
45764;SDS011;31474;45.332;10.230;2023-01-19T07:22:38;9.95;;;5.53;;
45764;SDS011;31474;45.332;10.230;2023-01-19T07:25:05;11.55;;;7.13;;
45764;SDS011;31474;45.332;10.230;2023-01-19T07:27:31;14.70;;;11.38;;
45764;SDS011;31474;45.332;10.230;2023-01-19T07:29:57;12.45;;;9.48;;
45764;SDS011;31474;45.332;10.230;2023-01-19T07:32:25;27.88;;;19.55;;
45764;SDS011;31474;45.332;10.230;2023-01-19T07:34:51;22.50;;;17.40;;
45764;SDS011;31474;45.332;10.230;2023-01-19T07:37:17;8.07;;;5.78;;
45764;SDS011;31474;45.332;10.230;2023-01-19T07:39:42;14.75;;;10.55;;
45764;SDS011;31474;45.332;10.230;2023-01-19T07:42:08;14.00;;;9.80;;
45764;SDS011;31474;45.332;10.230;2023-01-19T07:44:34;6.70;;;4.40;;
45764;SDS011;31474;45.332;10.230;2023-01-19T07:46:59;10.27;;;5.55;;
45764;SDS011;31474;45.332;10.230;2023-01-19T07:49:25;12.82;;;6.85;;
45764;SDS011;31474;45.332;10.230;2023-01-19T07:51:51;6.78;;;4.78;;
45764;SDS011;31474;45.332;10.230;2023-01-19T07:54:16;7.32;;;4.07;;
45764;SDS011;31474;45.332;10.230;2023-01-19T07:56:42;6.68;;;5.15;;
45764;SDS011;31474;45.332;10.230;2023-01-19T07:59:08;9.95;;;5.57;;
45764;SDS011;31474;45.332;10.230;2023-01-19T08:01:34;11.75;;;8.07;;
45764;SDS011;31474;45.332;10.230;2023-01-19T08:04:00;10.75;;;8.95;;
45764;SDS011;31474;45.332;10.230;2023-01-19T08:06:29;11.45;;;8.10;;
45764;SDS011;31474;45.332;10.230;2023-01-19T08:08:59;10.43;;;6.50;;
45764;SDS011;31474;45.332;10.230;2023-01-19T08:11:25;6.78;;;4.38;;
45764;SDS011;31474;45.332;10.230;2023-01-19T08:13:50;8.10;;;4.63;;
45764;SDS011;31474;45.332;10.230;2023-01-19T08:16:16;7.93;;;4.68;;
45764;SDS011;31474;45.332;10.230;2023-01-19T08:18:42;8.25;;;5.22;;
45764;SDS011;31474;45.332;10.230;2023-01-19T08:21:07;9.93;;;5.38;;
45764;SDS011;31474;45.332;10.230;2023-01-19T08:23:33;6.82;;;4.20;;
45764;SDS011;31474;45.332;10.230;2023-01-19T08:25:59;6.65;;;3.85;;
45764;SDS011;31474;45.332;10.230;2023-01-19T08:28:24;12.32;;;6.72;;
45764;SDS011;31474;45.332;10.230;2023-01-19T08:30:50;6.82;;;4.35;;
45764;SDS011;31474;45.332;10.230;2023-01-19T08:33:20;10.13;;;6.72;;
45764;SDS011;31474;45.332;10.230;2023-01-19T08:35:47;10.73;;;7.03;;
45764;SDS011;31474;45.332;10.230;2023-01-19T08:38:14;11.48;;;6.15;;
45764;SDS011;31474;45.332;10.230;2023-01-19T08:40:41;8.10;;;5.38;;
45764;SDS011;31474;45.332;10.230;2023-01-19T08:43:08;7.72;;;4.53;;
45764;SDS011;31474;45.332;10.230;2023-01-19T08:45:36;6.75;;;3.72;;
45764;SDS011;31474;45.332;10.230;2023-01-19T08:48:05;14.90;;;7.68;;
45764;SDS011;31474;45.332;10.230;2023-01-19T08:50:32;11.40;;;6.50;;
45764;SDS011;31474;45.332;10.230;2023-01-19T08:53:00;20.83;;;10.20;;
45764;SDS011;31474;45.332;10.230;2023-01-19T08:55:27;22.50;;;9.07;;
45764;SDS011;31474;45.332;10.230;2023-01-19T08:57:54;8.05;;;5.97;;
45764;SDS011;31474;45.332;10.230;2023-01-19T09:00:24;8.95;;;4.78;;
45764;SDS011;31474;45.332;10.230;2023-01-19T09:02:51;7.25;;;3.95;;
45764;SDS011;31474;45.332;10.230;2023-01-19T09:05:17;9.35;;;4.47;;
45764;SDS011;31474;45.332;10.230;2023-01-19T09:07:43;6.90;;;3.95;;
45764;SDS011;31474;45.332;10.230;2023-01-19T09:10:10;6.72;;;3.30;;
45764;SDS011;31474;45.332;10.230;2023-01-19T09:12:36;11.45;;;6.63;;
45764;SDS011;31474;45.332;10.230;2023-01-19T09:15:02;28.80;;;22.77;;
45764;SDS011;31474;45.332;10.230;2023-01-19T09:17:28;14.95;;;9.10;;
45764;SDS011;31474;45.332;10.230;2023-01-19T09:19:54;12.05;;;7.03;;
45764;SDS011;31474;45.332;10.230;2023-01-19T09:22:20;14.77;;;6.78;;
45764;SDS011;31474;45.332;10.230;2023-01-19T09:24:45;13.35;;;6.32;;
45764;SDS011;31474;45.332;10.230;2023-01-19T09:27:11;16.52;;;7.22;;
45764;SDS011;31474;45.332;10.230;2023-01-19T09:29:37;15.70;;;7.45;;
45764;SDS011;31474;45.332;10.230;2023-01-19T09:32:02;9.52;;;5.15;;
45764;SDS011;31474;45.332;10.230;2023-01-19T09:34:28;8.73;;;3.75;;
45764;SDS011;31474;45.332;10.230;2023-01-19T09:36:55;12.05;;;4.90;;
45764;SDS011;31474;45.332;10.230;2023-01-19T09:39:21;6.65;;;3.63;;
45764;SDS011;31474;45.332;10.230;2023-01-19T09:41:52;3.28;;;2.20;;
45764;SDS011;31474;45.332;10.230;2023-01-19T09:44:28;6.43;;;3.60;;
45764;SDS011;31474;45.332;10.230;2023-01-19T09:46:57;5.23;;;1.90;;
45764;SDS011;31474;45.332;10.230;2023-01-19T09:51:55;3.00;;;2.28;;
45764;SDS011;31474;45.332;10.230;2023-01-19T09:54:22;2.67;;;1.92;;
45764;SDS011;31474;45.332;10.230;2023-01-19T09:57:00;2.30;;;1.15;;
45764;SDS011;31474;45.332;10.230;2023-01-19T09:59:29;2.70;;;1.77;;
45764;SDS011;31474;45.332;10.230;2023-01-19T10:07:25;2.85;;;1.70;;
45764;SDS011;31474;45.332;10.230;2023-01-19T10:12:38;2.25;;;1.33;;
45764;SDS011;31474;45.332;10.230;2023-01-19T10:18:12;1.85;;;1.38;;
45764;SDS011;31474;45.332;10.230;2023-01-19T10:20:42;1.65;;;1.30;;
45764;SDS011;31474;45.332;10.230;2023-01-19T10:23:24;3.53;;;1.27;;
45764;SDS011;31474;45.332;10.230;2023-01-19T10:26:00;3.47;;;1.58;;
45764;SDS011;31474;45.332;10.230;2023-01-19T10:28:32;4.25;;;1.52;;
45764;SDS011;31474;45.332;10.230;2023-01-19T10:30:58;2.38;;;1.60;;
45764;SDS011;31474;45.332;10.230;2023-01-19T10:33:24;3.35;;;1.80;;
45764;SDS011;31474;45.332;10.230;2023-01-19T10:35:51;2.80;;;1.65;;
45764;SDS011;31474;45.332;10.230;2023-01-19T10:38:16;4.63;;;2.50;;
45764;SDS011;31474;45.332;10.230;2023-01-19T10:41:03;2.55;;;2.25;;
45764;SDS011;31474;45.332;10.230;2023-01-19T10:48:50;7.00;;;2.83;;
45764;SDS011;31474;45.332;10.230;2023-01-19T10:51:17;3.45;;;2.63;;
45764;SDS011;31474;45.332;10.230;2023-01-19T10:53:51;4.57;;;2.78;;
45764;SDS011;31474;45.332;10.230;2023-01-19T10:56:22;4.68;;;3.33;;
45764;SDS011;31474;45.332;10.230;2023-01-19T10:58:52;5.47;;;2.85;;
45764;SDS011;31474;45.332;10.230;2023-01-19T11:01:21;4.28;;;2.65;;
45764;SDS011;31474;45.332;10.230;2023-01-19T11:03:49;3.70;;;2.38;;
45764;SDS011;31474;45.332;10.230;2023-01-19T11:06:18;4.32;;;2.67;;
45764;SDS011;31474;45.332;10.230;2023-01-19T11:08:47;6.93;;;3.42;;
45764;SDS011;31474;45.332;10.230;2023-01-19T11:11:15;5.03;;;4.07;;
45764;SDS011;31474;45.332;10.230;2023-01-19T11:13:43;7.90;;;4.78;;
45764;SDS011;31474;45.332;10.230;2023-01-19T11:16:24;7.72;;;4.90;;
45764;SDS011;31474;45.332;10.230;2023-01-19T11:18:55;5.75;;;4.03;;
45764;SDS011;31474;45.332;10.230;2023-01-19T11:21:25;3.75;;;2.60;;
45764;SDS011;31474;45.332;10.230;2023-01-19T11:23:53;4.97;;;4.05;;
45764;SDS011;31474;45.332;10.230;2023-01-19T11:26:32;6.35;;;4.57;;
45764;SDS011;31474;45.332;10.230;2023-01-19T11:29:15;10.23;;;5.10;;
45764;SDS011;31474;45.332;10.230;2023-01-19T11:31:41;7.95;;;4.78;;
45764;SDS011;31474;45.332;10.230;2023-01-19T11:34:30;3.72;;;3.40;;
45764;SDS011;31474;45.332;10.230;2023-01-19T11:37:00;5.63;;;3.58;;
45764;SDS011;31474;45.332;10.230;2023-01-19T11:39:45;7.97;;;3.72;;
45764;SDS011;31474;45.332;10.230;2023-01-19T11:42:13;3.45;;;2.90;;
45764;SDS011;31474;45.332;10.230;2023-01-19T11:45:25;5.65;;;3.45;;
45764;SDS011;31474;45.332;10.230;2023-01-19T11:47:44;2.92;;;2.40;;
45764;SDS011;31474;45.332;10.230;2023-01-19T11:50:18;6.50;;;4.40;;
45764;SDS011;31474;45.332;10.230;2023-01-19T11:58:15;4.53;;;2.88;;
45764;SDS011;31474;45.332;10.230;2023-01-19T12:00:47;3.08;;;2.63;;
45764;SDS011;31474;45.332;10.230;2023-01-19T12:05:46;9.15;;;5.97;;
45764;SDS011;31474;45.332;10.230;2023-01-19T12:08:17;7.43;;;4.57;;
45764;SDS011;31474;45.332;10.230;2023-01-19T12:10:48;5.30;;;3.75;;
45764;SDS011;31474;45.332;10.230;2023-01-19T12:13:23;8.32;;;3.80;;
45764;SDS011;31474;45.332;10.230;2023-01-19T12:18:38;4.88;;;4.38;;
45764;SDS011;31474;45.332;10.230;2023-01-19T12:21:07;6.45;;;5.07;;
45764;SDS011;31474;45.332;10.230;2023-01-19T12:28:41;15.98;;;9.65;;
45764;SDS011;31474;45.332;10.230;2023-01-19T12:31:15;11.32;;;6.10;;
45764;SDS011;31474;45.332;10.230;2023-01-19T12:33:43;5.50;;;3.92;;
45764;SDS011;31474;45.332;10.230;2023-01-19T12:49:22;5.75;;;3.78;;
45764;SDS011;31474;45.332;10.230;2023-01-19T12:54:56;15.10;;;9.77;;
45764;SDS011;31474;45.332;10.230;2023-01-19T13:00:37;10.63;;;9.25;;
45764;SDS011;31474;45.332;10.230;2023-01-19T13:18:59;9.95;;;5.32;;
45764;SDS011;31474;45.332;10.230;2023-01-19T13:21:36;8.50;;;5.47;;
45764;SDS011;31474;45.332;10.230;2023-01-19T13:26:35;5.13;;;3.83;;
45764;SDS011;31474;45.332;10.230;2023-01-19T13:31:46;5.40;;;3.20;;
45764;SDS011;31474;45.332;10.230;2023-01-19T13:34:17;33.00;;;11.75;;
45764;SDS011;31474;45.332;10.230;2023-01-19T13:36:55;37.47;;;14.90;;
45764;SDS011;31474;45.332;10.230;2023-01-19T13:39:29;39.70;;;15.27;;
45764;SDS011;31474;45.332;10.230;2023-01-19T13:42:00;19.85;;;9.40;;
45764;SDS011;31474;45.332;10.230;2023-01-19T13:44:34;4.85;;;2.85;;
45764;SDS011;31474;45.332;10.230;2023-01-19T13:47:05;5.35;;;3.65;;
45764;SDS011;31474;45.332;10.230;2023-01-19T13:49:37;6.70;;;4.50;;
45764;SDS011;31474;45.332;10.230;2023-01-19T13:54:52;4.60;;;3.45;;
45764;SDS011;31474;45.332;10.230;2023-01-19T13:57:28;7.22;;;4.10;;
45764;SDS011;31474;45.332;10.230;2023-01-19T14:03:00;4.88;;;2.97;;
45764;SDS011;31474;45.332;10.230;2023-01-19T14:05:42;2.93;;;2.53;;
45764;SDS011;31474;45.332;10.230;2023-01-19T14:10:41;6.30;;;4.65;;
45764;SDS011;31474;45.332;10.230;2023-01-19T14:13:13;5.45;;;4.10;;
45764;SDS011;31474;45.332;10.230;2023-01-19T14:15:41;6.57;;;4.00;;
45764;SDS011;31474;45.332;10.230;2023-01-19T14:18:09;8.35;;;3.97;;
45764;SDS011;31474;45.332;10.230;2023-01-19T14:24:13;4.82;;;4.00;;
45764;SDS011;31474;45.332;10.230;2023-01-19T14:29:20;8.77;;;4.70;;
45764;SDS011;31474;45.332;10.230;2023-01-19T14:32:02;8.65;;;5.35;;
45764;SDS011;31474;45.332;10.230;2023-01-19T14:37:03;11.02;;;5.35;;
45764;SDS011;31474;45.332;10.230;2023-01-19T14:39:37;10.98;;;5.93;;
45764;SDS011;31474;45.332;10.230;2023-01-19T14:42:10;7.80;;;5.70;;
45764;SDS011;31474;45.332;10.230;2023-01-19T14:44:48;9.20;;;5.72;;
45764;SDS011;31474;45.332;10.230;2023-01-19T14:49:59;7.68;;;5.95;;
45764;SDS011;31474;45.332;10.230;2023-01-19T14:52:40;7.10;;;4.82;;
45764;SDS011;31474;45.332;10.230;2023-01-19T14:55:24;9.88;;;5.60;;
45764;SDS011;31474;45.332;10.230;2023-01-19T14:58:11;18.50;;;8.68;;
45764;SDS011;31474;45.332;10.230;2023-01-19T15:00:38;30.90;;;13.63;;
45764;SDS011;31474;45.332;10.230;2023-01-19T15:03:05;28.40;;;14.57;;
45764;SDS011;31474;45.332;10.230;2023-01-19T15:05:31;29.73;;;13.80;;
45764;SDS011;31474;45.332;10.230;2023-01-19T15:07:57;24.42;;;12.27;;
45764;SDS011;31474;45.332;10.230;2023-01-19T15:10:23;16.33;;;9.73;;
45764;SDS011;31474;45.332;10.230;2023-01-19T15:12:52;14.82;;;9.00;;
45764;SDS011;31474;45.332;10.230;2023-01-19T15:15:19;14.38;;;8.30;;
45764;SDS011;31474;45.332;10.230;2023-01-19T15:17:50;13.98;;;8.32;;
45764;SDS011;31474;45.332;10.230;2023-01-19T15:20:18;11.60;;;6.85;;
45764;SDS011;31474;45.332;10.230;2023-01-19T15:22:45;11.52;;;7.07;;
45764;SDS011;31474;45.332;10.230;2023-01-19T15:25:15;10.15;;;7.13;;
45764;SDS011;31474;45.332;10.230;2023-01-19T15:27:45;11.82;;;8.00;;
45764;SDS011;31474;45.332;10.230;2023-01-19T15:32:43;7.30;;;5.55;;
45764;SDS011;31474;45.332;10.230;2023-01-19T15:35:12;9.55;;;6.75;;
45764;SDS011;31474;45.332;10.230;2023-01-19T15:37:39;10.65;;;6.40;;
45764;SDS011;31474;45.332;10.230;2023-01-19T15:40:05;10.05;;;6.80;;
45764;SDS011;31474;45.332;10.230;2023-01-19T15:42:31;9.10;;;6.18;;
45764;SDS011;31474;45.332;10.230;2023-01-19T15:44:57;8.93;;;5.75;;
45764;SDS011;31474;45.332;10.230;2023-01-19T15:47:23;7.97;;;6.38;;
45764;SDS011;31474;45.332;10.230;2023-01-19T15:49:49;11.57;;;7.55;;
45764;SDS011;31474;45.332;10.230;2023-01-19T15:52:14;11.57;;;6.00;;
45764;SDS011;31474;45.332;10.230;2023-01-19T15:54:40;17.65;;;9.07;;
45764;SDS011;31474;45.332;10.230;2023-01-19T15:57:05;17.58;;;11.05;;
45764;SDS011;31474;45.332;10.230;2023-01-19T15:59:32;9.95;;;7.53;;
45764;SDS011;31474;45.332;10.230;2023-01-19T16:01:57;13.20;;;7.95;;
45764;SDS011;31474;45.332;10.230;2023-01-19T16:04:23;15.57;;;9.13;;
45764;SDS011;31474;45.332;10.230;2023-01-19T16:06:49;12.43;;;7.47;;
45764;SDS011;31474;45.332;10.230;2023-01-19T16:09:14;18.75;;;9.25;;
45764;SDS011;31474;45.332;10.230;2023-01-19T16:11:42;14.93;;;9.07;;
45764;SDS011;31474;45.332;10.230;2023-01-19T16:14:08;29.27;;;14.52;;
45764;SDS011;31474;45.332;10.230;2023-01-19T16:16:34;47.78;;;22.48;;
45764;SDS011;31474;45.332;10.230;2023-01-19T16:18:59;41.95;;;22.17;;
45764;SDS011;31474;45.332;10.230;2023-01-19T16:21:25;41.95;;;23.85;;
45764;SDS011;31474;45.332;10.230;2023-01-19T16:23:51;43.95;;;24.65;;
45764;SDS011;31474;45.332;10.230;2023-01-19T16:26:28;31.70;;;16.42;;